x

Luke Offshore Test Platform - 64 Nm South Of Dauphin Island, Al (42040) Wave Buoy

5:50pm - Fri 31st Jul 2015 All times are CDT. -5 hours from GMT.

  • Sig Wave height 1.3ft
  • Peak Period 4s
  • Average Period 4s
  • Wind
    7mph, 9mph gusts
  • Sea Temp 91°f
  • Air Temp 86°f
  • Sea Pressure 1011.1mb
  • Luke Offshore Test Platform - 64 Nm South Of Dauphin Island, Al
  • Luke Offshore Test Platform - 64 Nm South Of Dauphin Island, Al

More Historic Weather Station data

Upgrade to MSW Pro to gain access to the past 30 days of data for over 8000 Wavebouys and Weather Stations around the globe.

Join Pro

Comparision Forecast

View Surf forecast
   
Fri 07/31 5:50pm 1.3ft 4s 4s 7 9 mph 1011.1mb 91f 86f
4:50pm 1.3ft 4s 4s 7 9 mph 1011.2mb 92f 86f
3:50pm 1.3ft 4s 4s 7 9 mph 1011.7mb 93f 86f
2:50pm 1.3ft 4s 4s 2 4 mph 1012.3mb 93f 86f
1:50pm 1.3ft 4s 4s 2
mph
1012.7mb 91f 86f
12:50pm 1.3ft 4s 4s 2 4 mph 1013.3mb 90f 86f
11:50am 1.6ft 4s 4s 7
mph
1013.5mb 89f 85f
10:50am 1.6ft 4s 4s 7 9 mph 1013.3mb 88f 85f
9:50am 1.6ft 4s 4s 7 9 mph 1013.2mb 87f 85f
8:50am 1.6ft 4s 4s 7 9 mph 1013.4mb 87f 85f
7:50am 1.6ft 4s 4s 11 13 mph 1013.2mb 87f 84f
6:50am 2ft 4s 4s 9 11 mph 1012.6mb 87f 84f
5:50am 2ft 4s 4s 11 13 mph 1012.7mb 87f 85f
4:50am 2ft 5s 4s 11 13 mph 1012mb 87f 85f
3:50am 2ft 5s 4s 4
mph
1012.3mb 87f 84f
2:50am 2.5ft 6s 4s 13 16 mph 1011.4mb 88f 84f
1:50am 3ft 5s 4s 9 11 mph 1012.2mb 88f 82f
12:50am 2.5ft 4s 4s 7 9 mph 1014.2mb 88f 82f
Thu 07/30 11:50pm 2.5ft 4s 4s 2 9 mph 1014.6mb 88f 81f
10:50pm 2ft 3s 3s 18 20 mph 1014.7mb 89f 83f
9:50pm 2ft 3s 3s 25 31 mph 1013.2mb 90f 85f
8:50pm 1ft 3s 3s 13 16 mph 1013.9mb 90f 87f
7:50pm 1ft 4s 4s 13 16 mph 1013.3mb 91f 87f
6:50pm 1ft 3s 4s 11 13 mph 1012.6mb 92f 87f
5:50pm 1ft 6s 4s 7 9 mph 1013.3mb 93f 87f
4:50pm 1ft 6s 4s 2 4 mph 1012.8mb 93f 87f
3:50pm 1ft 3s 4s 4 7 mph 1013.3mb 92f 86f
2:50pm 1ft 3s 3s 2 4 mph 1014.7mb 92f 87f
1:50pm 1ft 4s 4s 4 7 mph 1015.3mb 90f 86f
12:50pm 1.3ft 4s 4s 7 9 mph 1015.4mb 90f 85f
11:50am 1.3ft 4s 4s 9 11 mph 1015.7mb 89f 85f
10:50am 1.6ft 3s 3s 7 9 mph 1016mb 88f 84f
9:50am 2ft 4s 4s 9 11 mph 1015.9mb 87f 84f
8:50am 2.5ft 4s 4s 11 13 mph 1016mb 87f 83f
7:50am 2.5ft 4s 4s 18 20 mph 1015.6mb 87f 82f
6:50am 1.6ft 4s 3s 20 25 mph 1015.1mb 87f 81f
5:50am 1.6ft 3s 3s 11 13 mph 1015.1mb 87f 85f
4:50am 1.6ft 3s 3s 13 16 mph 1014.4mb 87f 85f
3:50am 1.6ft 3s 3s 13 16 mph 1014.3mb 87f 86f
2:50am 1.6ft 3s 3s 13 16 mph 1014.5mb 87f 86f
1:50am 1.6ft 3s 3s 13 16 mph 1014.9mb 88f 86f
12:50am 1.6ft 3s 3s 11 13 mph 1015.3mb 88f 88f
Wed 07/29 11:50pm 1.6ft 3s 3s 13 16 mph 1015.3mb 88f 88f
10:50pm 1ft 3s 3s 16 18 mph 1015.9mb 89f 88f
9:50pm 0.7ft  -  3s 13 16 mph 1016mb 89f 88f
8:50pm 0.7ft  -  3s 11 13 mph 1015.1mb 90f 88f
7:50pm 0.7ft  -  4s 11 13 mph 1014.5mb 91f 87f
6:50pm 1ft 4s 4s 7 9 mph 1015.4mb 92f 88f
5:50pm 1ft 4s 4s 9 11 mph 1015.2mb 93f 88f
4:50pm 1ft 4s 3s 9 11 mph 1014.8mb 93f 88f
3:50pm 1ft 4s 3s 7 9 mph 1014.9mb 93f 88f
2:50pm 1.3ft 4s 3s 7
mph
1015.2mb 91f 87f
1:50pm 1.3ft 4s 3s 7 9 mph 1016mb 90f 87f
12:50pm 1.6ft 3s 3s 9
mph
1016.3mb 89f 86f
11:50am 1.6ft 3s 3s 11
mph
1016.8mb 89f 86f
10:50am 1.6ft 3s 3s 11 13 mph 1017.2mb 88f 85f
9:50am 2ft 3s 3s 16 18 mph 1017mb 88f 86f
8:50am 1.6ft 3s 3s 16 18 mph 1016.8mb 87f 86f
7:50am 1.3ft 3s 3s 13 16 mph 1016.4mb 87f 87f
6:50am 1.3ft 3s 3s 13 16 mph 1015.7mb 87f 87f
5:50am 1ft 2s 3s 11 13 mph 1015.3mb 87f 86f
4:50am 1ft 2s 3s 11 13 mph 1014.8mb 87f 86f
3:50am 0.7ft  -  3s 11 13 mph 1014.4mb 87f 86f
2:50am 0.7ft  -  3s 13 16 mph 1014.7mb 88f 87f
1:50am 0.7ft  -  3s 11 13 mph 1015.7mb 88f 86f
12:50am 0.3ft  -  4s 11 13 mph 1016mb 88f 86f
Tue 07/28 11:50pm 0.7ft  -  4s 9 11 mph 1016.3mb 88f 86f
10:50pm 0.7ft  -  4s 9 11 mph 1016.1mb 88f 86f
9:50pm 0.7ft  -  4s 7 9 mph 1015.8mb 89f 87f
8:50pm 0.7ft  -  4s 7
mph
1015.2mb 89f 87f
7:50pm 0.7ft  -  4s 7 9 mph 1015mb 89f 87f
6:50pm 0.7ft  -  4s 7 9 mph 1014.5mb 90f 87f
5:50pm 0.7ft  -  4s 7 9 mph 1014.7mb 91f 87f
4:50pm 1ft 3s 4s 7 9 mph 1015mb 91f 87f
3:50pm 1ft 3s 3s 7 9 mph 1015.6mb 91f 86f
2:50pm 1ft 3s 3s 7 9 mph 1016.1mb 91f 86f
1:50pm 0.7ft  -  3s 7 9 mph 1016.3mb 90f 86f
12:50pm 0.7ft  -  3s 7 9 mph 1016.4mb 89f 86f
11:50am 0.7ft  -  4s 7 9 mph 1016.4mb 88f 87f
10:50am 0.7ft  -  4s 9
mph
1016.7mb 88f 86f
9:50am 0.7ft  -  4s 4 7 mph 1016.9mb 87f 86f
8:50am 0.7ft  -  4s 7
mph
1016.8mb 87f 86f
7:50am 0.7ft  -  4s 7 9 mph 1016.4mb 87f 85f
6:50am 0.7ft  -  4s 7 9 mph 1015.8mb 87f 85f
5:50am 0.7ft  -  4s 7 9 mph 1015.2mb 87f 85f
4:50am 0.7ft  -  4s 7 9 mph 1014.3mb 87f 85f
3:50am 0.7ft  -  4s 9
mph
1014.1mb 87f 85f
2:50am 0.7ft  -  4s 9
mph
1014.5mb 87f 85f
1:50am 0.7ft  -  4s 7 9 mph 1014.8mb 87f 85f
12:50am 0.7ft  -  4s 4 7 mph 1014.8mb 87f 85f
Mon 07/27 11:50pm 1ft 4s 4s 4
mph
1014.9mb 87f 85f